Terminal Aerodrome Forecast
Issued by NWS

Home | Current Version | Previous Version | Text Only | Print | Product List | Glossary On
Versions: 1 2 3 4 5 6 7 8 9 10 11 12 13 14 15 16
000
FTUS42 TJSJ 271120
TAFJPS
TAF
TJPS 271120Z 2712/2812 08004KT P6SM BKN030
     FM271400 12010KT P6SM FEW030 SCT060 SCT090
     FM271800 17012KT P6SM VCSH SCT025 BKN050
     FM272300 06005KT P6SM FEW025 SCT050 BKN090
      AMD NOT SKED TIL 280300=

USA.gov is the U.S. government's official web portal to all federal, state and local government web resources and services.